createdAt,value
2023-04-29T00:02:46.491Z,12.34
2023-04-29T00:17:48.429Z,12.32
2023-04-29T00:32:50.355Z,12.29
2023-04-29T00:47:52.412Z,12.25
2023-04-29T01:02:57.246Z,12.25
2023-04-29T01:18:23.749Z,12.16
2023-04-29T01:33:38.693Z,11.95
2023-04-29T01:48:40.844Z,11.95
2023-04-29T02:03:43.323Z,11.93
2023-04-29T02:18:45.397Z,11.99
2023-04-29T02:33:47.518Z,11.92
2023-04-29T02:48:49.367Z,12.04
2023-04-29T03:03:51.379Z,12.04
2023-04-29T03:18:53.376Z,11.93
2023-04-29T03:33:55.697Z,11.99
2023-04-29T03:48:58.016Z,11.95
2023-04-29T04:04:00.073Z,11.89
2023-04-29T04:19:02.316Z,12.03
2023-04-29T04:34:04.698Z,12.16
2023-04-29T04:49:07.892Z,12.33
2023-04-29T05:04:10.080Z,12.16
2023-04-29T05:19:12.162Z,12.24
2023-04-29T05:34:14.516Z,12.12
2023-04-29T05:49:16.389Z,12.29
2023-04-29T06:04:18.458Z,12.27
2023-04-29T06:19:20.526Z,12.44
2023-04-29T06:34:22.534Z,12.74
2023-04-29T06:49:24.549Z,12.87
2023-04-29T07:04:26.495Z,13.09
2023-04-29T07:19:28.397Z,13.41
2023-04-29T07:34:30.328Z,13.83
2023-04-29T07:49:32.550Z,14.08
2023-04-29T08:04:35.332Z,13.88
2023-04-29T08:19:37.529Z,14.49
2023-04-29T08:34:42.111Z,14.59
2023-04-29T08:49:43.983Z,14.68
2023-04-29T09:05:05.792Z,14.71
2023-04-29T09:20:23.139Z,14.96
2023-04-29T09:35:27.618Z,14.98
2023-04-29T09:50:29.740Z,15.06
2023-04-29T10:05:32.664Z,15.01
2023-04-29T10:21:23.785Z,14.79
2023-04-29T10:36:28.766Z,14.79
2023-04-29T10:51:46.417Z,14.86
2023-04-29T11:06:56.443Z,15.73
2023-04-29T11:22:12.138Z,15.42
2023-04-29T11:37:19.563Z,15.52
2023-04-29T11:52:21.462Z,15.50
2023-04-29T12:07:24.975Z,15.54
2023-04-29T12:22:33.553Z,15.35
2023-04-29T12:37:35.719Z,15.40
2023-04-29T12:52:37.597Z,15.30
2023-04-29T13:07:39.588Z,15.13
2023-04-29T13:22:43.779Z,14.24
2023-04-29T13:37:46.174Z,13.28
2023-04-29T13:53:14.244Z,13.06
2023-04-29T14:08:10.042Z,13.08
2023-04-29T14:23:16.277Z,12.99
2023-04-29T14:38:18.969Z,12.95
2023-04-29T14:53:22.175Z,12.89
2023-04-29T15:08:23.992Z,12.97
2023-04-29T15:23:26.431Z,12.89
2023-04-29T15:38:30.152Z,12.82
2023-04-29T15:53:32.227Z,12.78
2023-04-29T16:08:34.179Z,12.76
2023-04-29T16:23:36.060Z,13.34
2023-04-29T16:38:38.487Z,13.13
2023-04-29T16:53:40.382Z,13.11
2023-04-29T17:08:43.262Z,12.89
2023-04-29T17:23:45.108Z,12.87
2023-04-29T17:38:47.212Z,12.94
2023-04-29T17:54:01.363Z,13.02
2023-04-29T18:09:03.746Z,12.91
2023-04-29T18:24:06.191Z,12.64
2023-04-29T18:39:08.476Z,12.69
2023-04-29T18:54:10.291Z,12.51
2023-04-29T19:09:12.327Z,12.60
2023-04-29T19:24:15.218Z,11.68
2023-04-29T19:39:18.609Z,11.85
2023-04-29T19:54:20.478Z,11.83
2023-04-29T20:09:22.280Z,11.77
2023-04-29T20:24:24.371Z,11.71
2023-04-29T20:39:26.671Z,11.81
2023-04-29T20:54:28.502Z,11.75
2023-04-29T21:09:30.344Z,11.93
2023-04-29T21:24:32.309Z,12.55
2023-04-29T21:39:34.747Z,11.87
2023-04-29T21:54:36.807Z,11.65
2023-04-29T22:09:38.646Z,11.83
2023-04-29T22:24:40.493Z,11.39
2023-04-29T22:39:43.221Z,11.65
2023-04-29T22:54:45.032Z,11.19
2023-04-29T23:09:47.063Z,11.07
2023-04-29T23:24:48.899Z,11.04
2023-04-29T23:39:52.310Z,12.09
2023-04-29T23:54:54.426Z,12.27
